Pleasant Valley, Arkansas
Current Conditions -  °F | °C
As of 7:58 AM on Monday 24 Nov 2014 (Local Time) from KLRF Reporting Station
Clear Clear  
Wind Chill: 40°   Ceiling: Unl
Heat Index: 45°   Visibility: 10mi
Dew Point: 37°   Wind: 10mph
Humidity: 73%   Direction: 260°W
Pressure: 29.85"   Gusts: NA
Location:  35.2494°N, 92.313°W
Report Text: KLRF 241358Z AUTO 26009KT 10SM CLR 07/03 A2985 RMK AO2 SLP111 T00730027
Loading
Personal Weather Stations






























Interactive Weather Map New forecast layout! Learn more

10-Day Weather Forecast

Advertisements
Track Severe Weather on mobile